Time;durP1;ratioP1;P1;durP2;ratioP2;P2;SDS_P1;SDS_P2;PMS_P1;PMS_P2;Temp;Humidity;BMP_temperature;BMP_pressure;BME280_temperature;BME280_humidity;BME280_pressure;Samples;Min_cycle;Max_cycle;Signal;HPM_P1;HPM_P2
2023/12/13 00:00:38;;;;;;;32.38;14.93;;;;;;;1.26;100.00;100522.69;4980928;23;20128;-70
2023/12/13 00:03:03;;;;;;;28.80;15.25;;;;;;;1.21;100.00;100511.25;4972534;28;20110;-69
2023/12/13 00:05:29;;;;;;;28.00;17.35;;;;;;;1.09;100.00;100480.72;4960512;28;20035;-70
2023/12/13 00:07:54;;;;;;;30.80;15.60;;;;;;;1.34;100.00;100508.84;4952862;29;20032;-70
2023/12/13 00:10:20;;;;;;;26.60;14.77;;;;;;;1.41;100.00;100517.84;4952573;29;20093;-70
2023/12/13 00:12:45;;;;;;;26.67;14.88;;;;;;;1.48;100.00;100506.47;4952434;29;20058;-69
2023/12/13 00:15:12;;;;;;;24.10;14.52;;;;;;;1.06;100.00;100433.06;4952365;29;20110;-70
2023/12/13 00:17:37;;;;;;;25.00;16.02;;;;;;;1.54;100.00;100532.34;4952504;29;20035;-70
2023/12/13 00:20:05;;;;;;;37.22;19.63;;;;;;;1.23;100.00;100461.41;4952739;29;20409;-70
2023/12/13 00:22:32;;;;;;;25.30;16.38;;;;;;;1.55;100.00;100499.38;4952416;29;20073;-70
2023/12/13 00:24:57;;;;;;;26.30;14.35;;;;;;;0.76;100.00;100356.31;4951946;29;20061;-70
2023/12/13 00:27:23;;;;;;;28.27;14.68;;;;;;;1.28;100.00;100437.19;4952535;29;20027;-70
2023/12/13 00:29:48;;;;;;;28.35;15.13;;;;;;;1.60;100.00;100504.81;4952287;29;20028;-70
2023/12/13 00:32:14;;;;;;;33.35;18.95;;;;;;;1.56;100.00;100501.16;4952082;29;20058;-70
2023/12/13 00:34:39;;;;;;;26.63;15.95;;;;;;;1.64;100.00;100499.16;4952305;29;20501;-70
2023/12/13 00:37:05;;;;;;;28.20;16.17;;;;;;;1.43;100.00;100460.31;4951747;29;20042;-70
2023/12/13 00:39:32;;;;;;;26.00;16.05;;;;;;;1.10;100.00;100417.25;4952166;29;20394;-70
2023/12/13 00:41:58;;;;;;;27.48;14.18;;;;;;;1.49;100.00;100513.31;4951704;29;20042;-70
2023/12/13 00:44:23;;;;;;;24.15;14.02;;;;;;;1.34;100.00;100508.84;4952372;29;20422;-70
2023/12/13 00:46:49;;;;;;;26.67;13.35;;;;;;;1.20;100.00;100487.50;4934832;29;20028;-69
2023/12/13 00:49:14;;;;;;;23.88;13.55;;;;;;;1.26;100.00;100497.25;4933891;29;20043;-69
2023/12/13 00:51:40;;;;;;;24.63;14.00;;;;;;;0.83;100.00;100448.25;4952043;29;20031;-69
2023/12/13 00:54:05;;;;;;;23.15;12.82;;;;;;;1.09;100.00;100483.25;4952135;29;20031;-69
2023/12/13 00:56:31;;;;;;;23.98;13.80;;;;;;;1.01;100.00;100474.16;4952096;29;20375;-69
2023/12/13 00:58:57;;;;;;;23.20;13.10;;;;;;;0.73;100.00;100442.47;4952271;29;20098;-69
2023/12/13 01:01:24;;;;;;;28.48;13.88;;;;;;;0.85;100.00;100477.19;4951884;29;20482;-69
2023/12/13 01:03:49;;;;;;;32.15;15.45;;;;;;;0.50;100.00;100455.06;4952285;29;20094;-69
2023/12/13 01:06:15;;;;;;;38.35;18.27;;;;;;;0.67;100.00;100466.53;4951706;29;20026;-69
2023/12/13 01:08:40;;;;;;;38.63;19.48;;;;;;;0.14;100.00;100415.16;4951969;29;20039;-69
2023/12/13 01:11:09;;;;;;;36.38;19.00;;;;;;;0.33;100.00;100477.53;4951837;29;20051;-69
2023/12/13 01:13:37;;;;;;;33.70;18.23;;;;;;;0.34;100.00;100465.69;4952013;29;20106;-69
2023/12/13 01:16:03;;;;;;;41.42;18.83;;;;;;;0.04;100.00;100414.31;4951568;29;20136;-69
2023/12/13 01:18:29;;;;;;;42.85;19.65;;;;;;;0.33;100.00;100477.53;4952035;29;20144;-69
2023/12/13 01:20:54;;;;;;;37.47;18.85;;;;;;;0.27;100.00;100490.59;4952058;29;20567;-69
2023/12/13 01:23:20;;;;;;;34.20;18.48;;;;;;;0.07;100.00;100509.34;4951079;29;20031;-69
2023/12/13 01:25:45;;;;;;;39.45;19.60;;;;;;;-0.05;100.00;100527.03;4951686;29;20063;-69
2023/12/13 01:28:11;;;;;;;33.93;17.83;;;;;;;-0.15;100.00;100521.09;4951885;29;20054;-69
2023/12/13 01:30:36;;;;;;;30.67;16.80;;;;;;;-0.19;100.00;100499.66;4951418;29;20035;-68
2023/12/13 01:33:02;;;;;;;29.63;16.33;;;;;;;-0.01;100.00;100492.66;4951455;29;20039;-70
2023/12/13 01:35:27;;;;;;;29.77;16.37;;;;;;;0.08;100.00;100488.28;4951428;29;20098;-70
2023/12/13 01:37:53;;;;;;;27.85;15.98;;;;;;;0.19;100.00;100452.69;4952087;29;20039;-72
2023/12/13 01:40:18;;;;;;;27.13;16.33;;;;;;;0.24;100.00;100428.56;4951754;29;20038;-72
2023/12/13 01:42:44;;;;;;;29.08;15.65;;;;;;;0.03;100.00;100377.91;4951545;28;20198;-72
2023/12/13 01:45:10;;;;;;;28.52;16.38;;;;;;;0.03;100.00;100382.97;4955277;29;20058;-72
2023/12/13 01:47:37;;;;;;;30.08;16.50;;;;;;;0.35;100.00;100455.69;4955414;29;20031;-71
2023/12/13 01:50:04;;;;;;;26.40;15.60;;;;;;;0.18;100.00;100448.41;4955528;29;20035;-71
2023/12/13 01:52:30;;;;;;;24.15;15.13;;;;;;;0.09;100.00;100454.53;4936710;29;20043;-71
2023/12/13 01:54:55;;;;;;;22.75;14.93;;;;;;;0.02;100.00;100447.19;4955099;29;20110;-71
2023/12/13 01:57:21;;;;;;;25.23;14.82;;;;;;;-0.07;100.00;100438.88;4905220;29;20482;-71
2023/12/13 01:59:47;;;;;;;26.00;14.93;;;;;;;-0.15;100.00;100423.00;4954844;29;20062;-72
2023/12/13 02:02:13;;;;;;;24.13;14.75;;;;;;;-0.07;100.00;100441.41;4936788;29;20055;-71
2023/12/13 02:04:39;;;;;;;27.57;15.33;;;;;;;-0.24;100.00;100438.41;4920826;29;20035;-71
2023/12/13 02:07:04;;;;;;;26.75;15.07;;;;;;;-0.31;100.00;100453.00;4955122;29;20067;-70
2023/12/13 02:09:30;;;;;;;25.83;14.90;;;;;;;-0.51;100.00;100434.56;4955106;29;20710;-71
2023/12/13 02:11:56;;;;;;;22.57;14.60;;;;;;;-0.42;100.00;100462.31;4955086;29;20031;-71
2023/12/13 02:14:22;;;;;;;23.80;14.37;;;;;;;-0.80;100.00;100374.78;4954938;29;20492;-70
2023/12/13 02:16:47;;;;;;;25.92;14.55;;;;;;;-0.72;100.00;100367.81;4954557;29;20122;-71
2023/12/13 02:19:13;;;;;;;21.53;13.77;;;;;;;-0.51;100.00;100420.22;4954871;29;20138;-71
2023/12/13 02:21:38;;;;;;;26.03;15.30;;;;;;;-0.36;100.00;100457.75;4955069;29;20042;-71
2023/12/13 02:24:06;;;;;;;22.40;14.97;;;;;;;-0.32;100.00;100452.13;4937553;29;20097;-71
2023/12/13 02:26:35;;;;;;;23.93;13.83;;;;;;;-0.29;100.00;100447.28;4954687;29;20027;-71
2023/12/13 02:29:01;;;;;;;24.13;15.13;;;;;;;-0.47;100.00;100405.25;4954747;29;20039;-71
2023/12/13 02:31:29;;;;;;;29.73;15.47;;;;;;;-0.38;100.00;100391.66;4954847;29;20027;-71
2023/12/13 02:33:55;;;;;;;24.48;15.02;;;;;;;-0.07;100.00;100408.41;4955137;29;20457;-71
2023/12/13 02:36:20;;;;;;;27.50;16.00;;;;;;;-0.04;100.00;100394.31;4954505;29;20454;-71
2023/12/13 02:38:46;;;;;;;26.80;16.00;;;;;;;0.01;100.00;100404.81;4954465;29;20047;-71
2023/12/13 02:41:11;;;;;;;28.15;15.63;;;;;;;-0.04;100.00;100421.31;4954366;29;20037;-71
2023/12/13 02:43:37;;;;;;;27.98;16.00;;;;;;;-0.19;100.00;100388.94;4954185;29;20035;-71
2023/12/13 02:46:02;;;;;;;23.67;15.40;;;;;;;-0.14;100.00;100401.09;4954447;29;20031;-71
2023/12/13 02:48:28;;;;;;;29.10;15.35;;;;;;;0.01;100.00;100411.53;4954501;29;20034;-71
2023/12/13 02:50:54;;;;;;;42.67;17.17;;;;;;;-0.01;100.00;100421.59;4954233;29;20078;-72
2023/12/13 02:53:20;;;;;;;61.33;19.17;;;;;;;-0.03;100.00;100428.19;4954293;29;20095;-71
2023/12/13 02:55:46;;;;;;;71.17;21.50;;;;;;;-0.07;100.00;100443.94;4953269;28;20106;-71
2023/12/13 02:58:11;;;;;;;51.13;21.33;;;;;;;-0.09;100.00;100436.19;4954280;29;20110;-72
2023/12/13 03:00:37;;;;;;;65.20;20.02;;;;;;;-0.11;100.00;100434.28;4936762;29;20516;-71
2023/12/13 03:03:02;;;;;;;45.47;19.30;;;;;;;-0.59;100.00;100368.00;4954279;29;20039;-71
2023/12/13 03:05:28;;;;;;;64.07;19.20;;;;;;;-0.21;100.00;100431.03;4953923;29;20035;-71
2023/12/13 03:07:53;;;;;;;56.30;19.75;;;;;;;-0.28;100.00;100436.38;4953570;29;20043;-71
2023/12/13 03:10:19;;;;;;;43.90;18.70;;;;;;;-0.28;100.00;100433.84;4953883;29;20031;-71
2023/12/13 03:12:45;;;;;;;56.13;18.73;;;;;;;-0.45;100.00;100434.16;4953993;28;20038;-70
2023/12/13 03:15:11;;;;;;;49.43;18.67;;;;;;;-0.62;100.00;100438.78;4953927;28;20027;-71
2023/12/13 03:17:36;;;;;;;54.57;19.70;;;;;;;-0.56;100.00;100423.13;4953428;29;20063;-70
2023/12/13 03:20:03;;;;;;;50.83;17.90;;;;;;;-0.52;100.00;100403.22;4951708;29;20041;-71
2023/12/13 03:22:28;;;;;;;59.57;19.53;;;;;;;-0.30;100.00;100419.28;4953545;29;20042;-71
2023/12/13 03:24:56;;;;;;;59.73;19.27;;;;;;;-0.17;100.00;100433.03;4953540;29;20062;-71
2023/12/13 03:27:21;;;;;;;63.40;19.03;;;;;;;-0.83;100.00;100301.03;4953643;29;20035;-71
2023/12/13 03:29:48;;;;;;;67.38;19.08;;;;;;;0.02;100.00;100436.16;4953647;29;20027;-71
2023/12/13 03:32:13;;;;;;;72.13;20.47;;;;;;;-0.09;100.00;100402.31;4903648;29;20043;-71
2023/12/13 03:34:39;;;;;;;65.32;21.33;;;;;;;0.02;100.00;100404.03;4953485;29;20057;-70
2023/12/13 03:37:06;;;;;;;74.53;19.83;;;;;;;0.08;100.00;100409.59;4953461;29;20405;-71
2023/12/13 03:39:32;;;;;;;67.20;21.13;;;;;;;0.09;100.00;100413.03;4953351;29;20064;-70
2023/12/13 03:41:58;;;;;;;57.33;20.25;;;;;;;0.02;100.00;100385.41;4953499;29;20027;-71
2023/12/13 03:44:23;;;;;;;51.92;20.38;;;;;;;0.10;100.00;100394.47;4953429;29;20098;-70
2023/12/13 03:46:50;;;;;;;52.80;20.33;;;;;;;0.21;100.00;100410.53;4953420;29;20038;-71
2023/12/13 03:49:16;;;;;;;65.13;20.63;;;;;;;0.27;100.00;100409.34;4953177;29;20042;-71
2023/12/13 03:51:46;;;;;;;56.85;19.60;;;;;;;0.30;100.00;100416.34;4952959;29;20039;-71
2023/12/13 03:54:12;;;;;;;38.25;18.55;;;;;;;0.30;100.00;100419.78;4934874;29;20126;-71
2023/12/13 03:56:37;;;;;;;49.25;18.23;;;;;;;0.35;100.00;100420.13;4953278;29;20046;-71
2023/12/13 03:59:03;;;;;;;59.92;18.52;;;;;;;0.36;100.00;100428.63;4953211;29;20027;-71
2023/12/13 04:01:29;;;;;;;45.40;18.23;;;;;;;0.35;100.00;100442.06;4953001;29;20062;-71
2023/12/13 04:03:54;;;;;;;48.53;18.70;;;;;;;0.39;100.00;100444.09;4953195;29;20035;-71
2023/12/13 04:06:19;;;;;;;49.38;19.30;;;;;;;0.40;100.00;100434.06;4952835;28;20121;-71
2023/12/13 04:08:45;;;;;;;47.65;20.08;;;;;;;0.47;100.00;100408.38;4952989;29;20042;-71
2023/12/13 04:11:10;;;;;;;45.20;20.20;;;;;;;0.53;100.00;100400.31;4952963;29;20455;-71
2023/12/13 04:13:36;;;;;;;50.53;18.83;;;;;;;0.34;100.00;100375.19;4948396;29;20485;-71
2023/12/13 04:16:01;;;;;;;52.60;19.92;;;;;;;0.63;100.00;100394.28;4952933;29;20485;-71
2023/12/13 04:18:27;;;;;;;48.38;19.45;;;;;;;0.70;100.00;100386.34;4952840;29;20045;-71
2023/12/13 04:20:52;;;;;;;61.42;21.80;;;;;;;0.50;100.00;100340.78;4952063;28;20031;-71
2023/12/13 04:23:18;;;;;;;55.05;20.40;;;;;;;0.88;100.00;100406.28;4951975;28;20035;-71
2023/12/13 04:25:43;;;;;;;52.17;19.95;;;;;;;0.94;100.00;100419.44;4952188;28;20375;-70
2023/12/13 04:28:09;;;;;;;52.45;18.23;;;;;;;0.96;100.00;100417.91;4952017;29;20046;-71
2023/12/13 04:30:34;;;;;;;63.55;18.25;;;;;;;0.93;100.00;100421.09;4952648;28;20058;-71
2023/12/13 04:33:00;;;;;;;69.15;20.30;;;;;;;0.44;100.00;100407.25;4952564;28;20035;-70
2023/12/13 04:35:25;;;;;;;56.35;21.40;;;;;;;0.04;100.00;100378.78;4952664;28;20027;-70
2023/12/13 04:37:51;;;;;;;62.75;20.90;;;;;;;0.13;100.00;100430.28;4952513;28;20031;-70
2023/12/13 04:40:16;;;;;;;60.20;20.10;;;;;;;-0.10;100.00;100428.47;4952744;28;20035;-70
2023/12/13 04:42:42;;;;;;;49.20;20.50;;;;;;;-1.16;100.00;100284.91;4952221;29;20043;-70
2023/12/13 04:45:08;;;;;;;50.83;20.23;;;;;;;-0.39;100.00;100443.13;4951657;28;20401;-70
2023/12/13 04:47:34;;;;;;;50.73;18.67;;;;;;;-0.44;100.00;100441.00;4952513;29;20035;-70
2023/12/13 04:49:59;;;;;;;45.43;17.67;;;;;;;-0.57;100.00;100421.41;4952129;28;20031;-70
2023/12/13 04:52:25;;;;;;;51.47;18.73;;;;;;;-0.66;100.00;100419.00;4952655;28;20118;-70
2023/12/13 04:54:50;;;;;;;49.00;19.07;;;;;;;-1.19;100.00;100358.13;4952434;28;20390;-70
2023/12/13 04:57:17;;;;;;;51.93;19.10;;;;;;;-0.87;100.00;100436.75;4952467;28;20036;-70
2023/12/13 04:59:42;;;;;;;47.43;19.57;;;;;;;-1.60;100.00;100288.13;4951874;28;20059;-70
2023/12/13 05:02:08;;;;;;;47.57;20.17;;;;;;;-0.64;100.00;100445.34;4935157;29;20043;-70
2023/12/13 05:04:33;;;;;;;49.97;19.20;;;;;;;-0.60;100.00;100437.22;4950800;28;20035;-69
2023/12/13 05:07:00;;;;;;;43.83;20.07;;;;;;;-0.54;100.00;100437.72;4951663;28;20039;-70
2023/12/13 05:09:25;;;;;;;60.43;19.83;;;;;;;-0.45;100.00;100441.78;4952396;28;20028;-70
2023/12/13 05:11:54;;;;;;;54.00;20.17;;;;;;;-0.31;100.00;100438.69;4951763;28;20035;-70
2023/12/13 05:14:20;;;;;;;51.87;21.60;;;;;;;-0.21;100.00;100427.63;4951912;29;20035;-70
2023/12/13 05:16:46;;;;;;;52.67;20.52;;;;;;;-0.20;100.00;100424.31;4951690;28;20517;-70
2023/12/13 05:19:11;;;;;;;63.75;21.00;;;;;;;-0.10;100.00;100436.06;4952735;28;20070;-70
2023/12/13 05:21:37;;;;;;;61.78;21.42;;;;;;;-0.07;100.00;100449.88;4955288;28;20032;-70
2023/12/13 05:24:03;;;;;;;71.93;23.02;;;;;;;-0.01;100.00;100467.28;4955131;28;20518;-70
2023/12/13 05:26:29;;;;;;;62.50;24.63;;;;;;;0.04;100.00;100465.06;4955334;29;20031;-70
2023/12/13 05:28:55;;;;;;;50.10;21.80;;;;;;;0.16;100.00;100468.56;4955305;28;20049;-70
2023/12/13 05:31:22;;;;;;;64.13;25.23;;;;;;;0.14;100.00;100465.06;4955117;28;20031;-70
2023/12/13 05:33:48;;;;;;;59.90;23.65;;;;;;;0.06;100.00;100461.88;4952662;29;20031;-70
2023/12/13 05:36:14;;;;;;;65.38;22.67;;;;;;;-0.08;100.00;100447.25;4955811;29;20035;-70
2023/12/13 05:38:41;;;;;;;56.28;26.10;;;;;;;0.11;100.00;100463.16;4955963;29;20038;-70
2023/12/13 05:41:07;;;;;;;75.47;22.02;;;;;;;0.19;100.00;100455.22;4955953;29;20143;-70
2023/12/13 05:43:35;;;;;;;52.92;20.38;;;;;;;0.15;100.00;100437.25;4955862;29;20389;-70
2023/12/13 05:46:01;;;;;;;60.97;34.25;;;;;;;0.14;100.00;100427.84;4955769;29;20027;-70
2023/12/13 05:48:26;;;;;;;56.05;32.65;;;;;;;-0.49;100.00;100329.03;4955480;29;20063;-70
2023/12/13 05:50:53;;;;;;;48.60;22.83;;;;;;;0.10;100.00;100415.69;4955643;29;20490;-70
2023/12/13 05:53:18;;;;;;;46.53;18.98;;;;;;;-0.10;100.00;100370.09;4955624;29;20038;-70
2023/12/13 05:55:44;;;;;;;50.70;20.40;;;;;;;-0.15;100.00;100351.09;4955225;29;20031;-70
2023/12/13 05:58:09;;;;;;;67.13;20.77;;;;;;;0.13;100.00;100389.66;4955553;29;20028;-70
2023/12/13 06:00:35;;;;;;;63.40;21.35;;;;;;;0.18;100.00;100392.56;4955318;29;20597;-70
2023/12/13 06:03:00;;;;;;;47.50;19.88;;;;;;;0.41;100.00;100423.13;4955378;29;20039;-70
2023/12/13 06:05:26;;;;;;;46.80;19.23;;;;;;;0.57;100.00;100444.63;4955072;29;20030;-70
2023/12/13 06:07:51;;;;;;;48.53;20.63;;;;;;;0.63;100.00;100434.94;4955305;29;20031;-70
2023/12/13 06:10:17;;;;;;;52.08;21.70;;;;;;;0.66;100.00;100440.25;4955297;29;20035;-72
2023/12/13 06:12:43;;;;;;;57.50;19.80;;;;;;;0.54;100.00;100424.94;4955432;29;20466;-72
2023/12/13 06:15:09;;;;;;;49.75;20.42;;;;;;;0.43;100.00;100398.72;4955183;29;20453;-70
2023/12/13 06:17:35;;;;;;;41.40;18.35;;;;;;;0.61;100.00;100413.59;4955157;29;20027;-70
2023/12/13 06:20:03;;;;;;;55.72;20.52;;;;;;;0.84;100.00;100434.78;4954867;29;20393;-70
2023/12/13 06:22:28;;;;;;;45.92;21.00;;;;;;;0.93;100.00;100430.38;4905172;29;20054;-70
2023/12/13 06:24:53;;;;;;;50.05;19.98;;;;;;;0.98;100.00;100428.19;4955114;29;20031;-70
2023/12/13 06:27:19;;;;;;;41.33;18.33;;;;;;;0.68;100.00;100369.22;4954155;28;20027;-73
2023/12/13 06:29:45;;;;;;;60.33;21.25;;;;;;;1.09;100.00;100435.81;4972858;28;20031;-71
2023/12/13 06:32:10;;;;;;;48.70;20.92;;;;;;;1.09;100.00;100423.13;4973972;28;20019;-70
2023/12/13 06:34:36;;;;;;;123.18;50.53;;;;;;;1.18;100.00;100416.94;4973696;28;20567;-71
2023/12/13 06:37:02;;;;;;;64.40;22.45;;;;;;;1.17;100.00;100408.41;4974038;28;20019;-71
2023/12/13 06:39:27;;;;;;;58.45;22.42;;;;;;;1.19;100.00;100404.34;4973463;28;20035;-70
2023/12/13 06:41:52;;;;;;;63.08;21.80;;;;;;;0.66;100.00;100337.72;4973678;28;20031;-70
2023/12/13 06:44:18;;;;;;;59.22;19.00;;;;;;;0.98;100.00;100413.81;4973873;28;20034;-70
2023/12/13 06:46:43;;;;;;;46.17;19.33;;;;;;;0.90;100.00;100392.03;4973868;28;20086;-71
2023/12/13 06:49:09;;;;;;;51.17;19.52;;;;;;;0.45;100.00;100303.22;4973615;28;20401;-71
2023/12/13 06:51:36;;;;;;;59.70;21.48;;;;;;;0.95;100.00;100368.72;4973938;28;20511;-70
2023/12/13 06:54:02;;;;;;;63.35;17.60;;;;;;;0.98;100.00;100352.81;4973836;28;20023;-71
2023/12/13 06:56:28;;;;;;;67.55;20.85;;;;;;;1.13;100.00;100363.22;4955255;28;20110;-71
2023/12/13 06:58:53;;;;;;;57.10;20.70;;;;;;;1.06;100.00;100382.22;4954964;28;20031;-72
2023/12/13 07:01:20;;;;;;;57.38;17.83;;;;;;;0.90;100.00;100407.28;4973575;28;20663;-70
2023/12/13 07:03:45;;;;;;;68.93;19.35;;;;;;;0.74;100.00;100405.25;4973682;28;20121;-70
2023/12/13 07:06:11;;;;;;;52.05;18.42;;;;;;;0.58;100.00;100421.00;4973674;28;20499;-70
2023/12/13 07:08:36;;;;;;;121.22;26.45;;;;;;;0.04;100.00;100335.63;4973499;28;20098;-70
2023/12/13 07:11:05;;;;;;;170.25;39.40;;;;;;;0.48;100.00;100412.66;4973414;28;20039;-70
2023/12/13 07:13:30;;;;;;;237.43;52.17;;;;;;;0.59;100.00;100415.16;4973533;28;20031;-70
2023/12/13 07:15:56;;;;;;;247.52;57.45;;;;;;;0.66;100.00;100404.69;4973255;28;20041;-70
2023/12/13 07:18:23;;;;;;;191.32;53.50;;;;;;;0.68;100.00;100400.59;4973133;28;20085;-70
2023/12/13 07:20:48;;;;;;;160.07;39.78;;;;;;;0.67;100.00;100395.41;4938866;28;20078;-70
2023/12/13 07:23:14;;;;;;;114.13;33.35;;;;;;;0.69;100.00;100402.34;4973306;28;20062;-71
2023/12/13 07:25:41;;;;;;;107.63;29.45;;;;;;;0.32;100.00;100338.63;4973238;28;20026;-70
2023/12/13 07:28:06;;;;;;;70.53;25.77;;;;;;;0.58;100.00;100371.06;4972937;28;20081;-71
2023/12/13 07:30:32;;;;;;;88.78;25.88;;;;;;;0.83;100.00;100407.59;4972967;28;20030;-70
2023/12/13 07:32:57;;;;;;;86.15;25.58;;;;;;;0.83;100.00;100397.44;4973332;28;20174;-70
2023/12/13 07:35:23;;;;;;;75.15;25.50;;;;;;;0.98;100.00;100415.47;4973161;28;20034;-70
2023/12/13 07:37:49;;;;;;;68.93;24.65;;;;;;;0.66;100.00;100348.78;4973186;28;20022;-70
2023/12/13 07:40:15;;;;;;;89.93;25.48;;;;;;;1.06;100.00;100410.19;4938451;28;20493;-70
2023/12/13 07:42:41;;;;;;;71.10;23.75;;;;;;;0.98;100.00;100378.22;4972405;28;20027;-70
2023/12/13 07:45:10;;;;;;;62.15;24.35;;;;;;;0.82;100.00;100324.50;4972754;28;20038;-70
2023/12/13 07:47:35;;;;;;;71.13;22.83;;;;;;;1.02;100.00;100357.31;4972890;28;20050;-70
2023/12/13 07:50:03;;;;;;;79.78;24.10;;;;;;;1.33;100.00;100395.16;4972977;28;20505;-70
2023/12/13 07:52:28;;;;;;;78.85;22.70;;;;;;;1.37;100.00;100402.28;4972980;28;20026;-70
2023/12/13 07:54:55;;;;;;;67.93;21.17;;;;;;;1.42;100.00;100400.94;4972813;28;20461;-71
2023/12/13 07:57:21;;;;;;;62.10;20.85;;;;;;;1.07;100.00;100333.16;4954160;28;20730;-70
2023/12/13 07:59:46;;;;;;;55.13;21.42;;;;;;;1.51;100.00;100415.97;4972365;28;20047;-70
2023/12/13 08:02:12;;;;;;;58.30;20.70;;;;;;;0.70;100.00;100268.56;4972341;28;20019;-70
2023/12/13 08:04:41;;;;;;;69.78;21.13;;;;;;;1.45;100.00;100392.63;4972638;28;20169;-70
2023/12/13 08:07:07;;;;;;;74.67;20.27;;;;;;;1.44;100.00;100373.94;4972735;28;20030;-70
2023/12/13 08:09:32;;;;;;;53.80;19.88;;;;;;;1.40;100.00;100366.88;4972514;28;20673;-70
2023/12/13 08:11:58;;;;;;;61.00;20.13;;;;;;;1.36;100.00;100342.00;4972327;28;20039;-70
2023/12/13 08:14:30;;;;;;;49.47;21.92;;;;;;;1.59;100.00;100352.91;4972106;28;20031;-70
2023/12/13 08:16:55;;;;;;;64.05;19.08;;;;;;;1.58;100.00;100335.88;4972472;28;20042;-70
2023/12/13 08:19:21;;;;;;;53.05;20.50;;;;;;;1.80;100.00;100367.94;4972383;28;20034;-70
2023/12/13 08:21:46;;;;;;;49.63;20.15;;;;;;;1.89;100.00;100366.91;4972247;28;20026;-70
2023/12/13 08:24:12;;;;;;;41.83;18.52;;;;;;;1.98;100.00;100358.16;4972229;28;20030;-71
2023/12/13 08:26:37;;;;;;;57.97;21.52;;;;;;;1.70;100.00;100301.09;4972148;28;20449;-70
2023/12/13 08:29:03;;;;;;;57.05;21.17;;;;;;;2.07;100.00;100358.81;4972262;28;20042;-70
2023/12/13 08:31:29;;;;;;;55.72;22.38;;;;;;;2.23;100.00;100360.72;4972150;28;20444;-71
2023/12/13 08:33:54;;;;;;;49.22;18.77;;;;;;;2.28;100.00;100359.38;4954764;28;20113;-71
2023/12/13 08:36:20;;;;;;;43.75;17.20;;;;;;;2.18;100.00;100342.59;4972155;28;20033;-71
2023/12/13 08:38:45;;;;;;;88.72;18.40;;;;;;;2.13;100.00;100327.75;4967049;28;20034;-71
2023/12/13 08:41:13;;;;;;;40.03;18.48;;;;;;;2.13;100.00;100322.66;4971736;28;20118;-71
2023/12/13 08:43:39;;;;;;;67.82;18.95;;;;;;;1.78;100.00;100251.63;4971980;28;20030;-71
2023/12/13 08:46:05;;;;;;;67.20;16.90;;;;;;;2.26;100.00;100317.63;4954524;28;20114;-71
2023/12/13 08:48:31;;;;;;;54.53;19.98;;;;;;;2.41;100.00;100333.06;4972105;28;20501;-70
2023/12/13 08:50:57;;;;;;;58.33;20.02;;;;;;;2.00;100.00;100247.13;4921670;28;20057;-70
2023/12/13 08:53:24;;;;;;;45.40;17.83;;;;;;;2.17;100.00;100274.59;4974135;28;20093;-71
2023/12/13 08:55:49;;;;;;;36.30;18.17;;;;;;;2.20;100.00;100258.63;4975912;28;20380;-70
2023/12/13 08:58:15;;;;;;;49.38;18.88;;;;;;;2.58;100.00;100304.50;4975876;28;20118;-70
2023/12/13 09:00:40;;;;;;;73.95;18.23;;;;;;;2.65;100.00;100308.31;4975813;28;20512;-71
2023/12/13 09:03:06;;;;;;;47.72;20.17;;;;;;;2.70;100.00;100311.19;4975730;28;20034;-71
2023/12/13 09:05:31;;;;;;;60.53;20.73;;;;;;;2.69;100.00;100317.97;4975753;28;20552;-71
2023/12/13 09:07:57;;;;;;;46.17;18.45;;;;;;;2.21;100.00;100238.34;4975862;28;20066;-70
2023/12/13 09:10:23;;;;;;;50.88;19.45;;;;;;;2.49;100.00;100262.22;4975560;28;20043;-71
2023/12/13 09:12:49;;;;;;;65.28;20.20;;;;;;;2.63;100.00;100280.97;4975409;28;20039;-70
2023/12/13 09:15:18;;;;;;;55.58;19.73;;;;;;;2.76;100.00;100283.53;4940947;28;20045;-71
2023/12/13 09:17:47;;;;;;;49.85;21.27;;;;;;;2.84;100.00;100279.84;4975678;28;20039;-70
2023/12/13 09:20:16;;;;;;;56.97;20.52;;;;;;;2.59;100.00;100193.22;4975248;28;20051;-71
2023/12/13 09:22:42;;;;;;;68.72;20.63;;;;;;;2.98;100.00;100260.31;4975307;28;20046;-70
2023/12/13 09:25:09;;;;;;;62.20;22.63;;;;;;;2.95;100.00;100247.34;4975151;28;20042;-71
2023/12/13 09:27:35;;;;;;;83.75;21.73;;;;;;;2.87;100.00;100228.16;4975336;28;20023;-71
2023/12/13 09:30:01;;;;;;;60.53;21.60;;;;;;;2.57;100.00;100172.75;4975324;28;20031;-71
2023/12/13 09:32:26;;;;;;;55.30;22.05;;;;;;;2.67;100.00;100193.75;4975410;28;20401;-70
2023/12/13 09:34:52;;;;;;;55.90;21.30;;;;;;;3.02;100.00;100252.06;4975237;28;20184;-70
2023/12/13 09:37:17;;;;;;;49.85;23.23;;;;;;;3.04;100.00;100245.41;4975309;28;20046;-71
2023/12/13 09:39:45;;;;;;;74.00;22.52;;;;;;;3.12;100.00;100256.09;4975026;28;20033;-71
2023/12/13 09:42:12;;;;;;;48.65;21.02;;;;;;;3.13;100.00;100246.75;4974963;28;20097;-71
2023/12/13 09:44:39;;;;;;;45.03;21.25;;;;;;;3.17;100.00;100238.53;4975104;28;20031;-71
2023/12/13 09:47:05;;;;;;;39.40;20.48;;;;;;;3.25;100.00;100237.31;4974992;28;20498;-71
2023/12/13 09:49:34;;;;;;;47.33;21.58;;;;;;;3.34;100.00;100247.22;4975105;28;20089;-71
2023/12/13 09:52:06;;;;;;;50.05;23.20;;;;;;;3.31;100.00;100247.91;4974790;28;20069;-71
2023/12/13 09:54:32;;;;;;;51.55;23.27;;;;;;;3.07;100.00;100245.59;4974788;28;20552;-71
2023/12/13 09:56:58;;;;;;;54.50;23.42;;;;;;;2.96;100.00;100235.50;4974858;28;20405;-70
2023/12/13 09:59:24;;;;;;;55.00;24.90;;;;;;;2.90;100.00;100218.13;4974337;28;20034;-71
2023/12/13 10:01:50;;;;;;;60.78;25.45;;;;;;;3.13;100.00;100214.50;4974340;28;20062;-71
2023/12/13 10:04:15;;;;;;;54.55;25.85;;;;;;;2.93;100.00;100172.44;4973636;28;20035;-71
2023/12/13 10:06:41;;;;;;;50.15;24.45;;;;;;;3.24;100.00;100216.03;4974391;28;20038;-71
2023/12/13 10:09:07;;;;;;;54.17;25.50;;;;;;;3.30;100.00;100210.47;4974440;28;20474;-71
2023/12/13 10:11:34;;;;;;;62.45;27.17;;;;;;;3.20;100.00;100185.13;4974654;28;20105;-71
2023/12/13 10:13:59;;;;;;;64.55;25.35;;;;;;;3.24;100.00;100203.28;4974959;28;20469;-70
2023/12/13 10:16:28;;;;;;;53.83;26.95;;;;;;;3.23;100.00;100195.56;4974373;28;20034;-71
2023/12/13 10:18:54;;;;;;;65.80;33.72;;;;;;;2.33;100.00;100006.50;4974573;28;20038;-71
2023/12/13 10:21:20;;;;;;;80.85;38.28;;;;;;;3.39;100.00;100180.38;4974100;28;20042;-71
2023/12/13 10:23:45;;;;;;;124.72;59.25;;;;;;;3.40;100.00;100188.91;4974397;28;20027;-71
2023/12/13 10:26:12;;;;;;;70.07;35.65;;;;;;;3.35;100.00;100165.69;4974321;28;20022;-71
2023/12/13 10:28:37;;;;;;;60.38;29.05;;;;;;;3.48;100.00;100194.50;4974285;28;20735;-71
2023/12/13 10:31:03;;;;;;;61.08;30.13;;;;;;;3.57;100.00;100184.84;4974382;28;20022;-71
2023/12/13 10:33:29;;;;;;;64.30;30.25;;;;;;;3.57;100.00;100195.06;4974276;28;20069;-71
2023/12/13 10:36:01;;;;;;;64.90;30.55;;;;;;;3.53;100.00;100185.44;4974228;28;20088;-71
2023/12/13 10:38:26;;;;;;;63.75;27.75;;;;;;;3.40;100.00;100182.16;4974042;28;20544;-71
2023/12/13 10:40:53;;;;;;;62.95;28.25;;;;;;;3.29;100.00;100174.63;4974073;28;20110;-71
2023/12/13 10:43:20;;;;;;;72.43;30.20;;;;;;;3.34;100.00;100174.13;4974060;28;20043;-71
2023/12/13 10:46:00;;;;;;;73.90;33.20;;;;;;;3.51;100.00;100179.38;4967591;28;20042;-71
2023/12/13 10:48:32;;;;;;;90.63;36.22;;;;;;;3.65;100.00;100170.88;4973953;28;20037;-71
2023/12/13 10:51:02;;;;;;;93.07;36.78;;;;;;;3.33;100.00;100088.16;4973895;28;20089;-70
2023/12/13 10:53:31;;;;;;;85.55;33.20;;;;;;;3.82;100.00;100165.88;4973794;28;20026;-71
2023/12/13 10:55:58;;;;;;;75.93;32.17;;;;;;;3.82;100.00;100166.75;4974022;28;20031;-71
2023/12/13 10:58:25;;;;;;;85.05;32.47;;;;;;;3.87;100.00;100175.56;4973779;28;20039;-71
2023/12/13 11:00:51;;;;;;;76.97;32.08;;;;;;;3.97;100.00;100169.31;4973544;28;20382;-71